Decoded Metar for UHBB (BLAGOVESCHENSK in RUSSIA) (IATA:BQS) | Meteo·Mobile Aviation Weather
aviador You're here:

UHBB Decoded Metar

BLAGOVESCHENSK in RUSSIA
Report Time2018-08-17 01:00:00
UTC Time2018-08-17 01:30:08
Flight Rules vfr VFR
Wind210° at 8 kt
W.Decomp.*RWY 18: 6.0 kt HW 5.2 kt RCW
W.Rank210° ranks 15
Current wind is above 210° avg. (5.3)
Visibility9999 m
Phenomena:N/A
Clouds:Scattered 033 Hf
Expected CloudBase > 2,800 ft AGL from Temp-Dew spread
CeilingNone
Temp21°C (ISA +7)
Dew Point14°C (64% RH)
AAT19.4°C
QNH1012 hPa
Density Alt1,739 ft
Elevation640 ft
Report Wrong Elevation
Raw Report
METAR UHBB 170100Z 21004MPS 9999 SCT033 21/14 Q1012 R36/090060 NOSIG
RMK QFE742/0989=

Extra information for UHBB:More info

Metar Taf Metar & Taf Last 4 Metars F.Rules Stats Wind Profile Meteogram Temp Stats Airport Information Weather charts Add Link Nearby VenuesMetar ALERT Operation Metar Decoded Social comments